Flight Track Log - Related Links

Times and Time Zones

All times are in EDT time to prevent confusion due to time zone crossing. See the FLG4048 flight status page for this flight to view local times or setup timezone preferences in your user account.

Time Position Orientation Groundspeed Altitude Reporting Facility
EDT Latitude Longitude Course Direction KTS MPH feet Rate Location/Type
Thu 08:03:25 PM 39.0333 -84.6667 142° Southeast 157 181 1,300  Level Cincinnati TRACON
Thu 08:03:49 PM 39.0167 -84.6500 142° Southeast 167 192 2,200 1,429 Climbing Cincinnati TRACON
Thu 08:04:49 PM 39.0167 -84.5833 90° East 232 267 3,300 1,515 Climbing Cincinnati TRACON
Thu 08:05:28 PM 39.0392 -84.5389 57° Northeast 242 278 4,700 2,376 Climbing Indianapolis Center
Thu 08:06:30 PM 39.0633 -84.4492 71° East 265 305 7,300 2,390 Climbing Indianapolis Center
Thu 08:07:31 PM 39.0872 -84.3550 72° East 276 318 9,600 2,049 Climbing Indianapolis Center
Thu 08:08:33 PM 39.1133 -84.2583 71° East 285 328 11,500 1,306 Climbing Indianapolis Center
Thu 08:09:35 PM 39.1428 -84.1500 71° East 311 358 12,300 1,073 Climbing Indianapolis Center
Thu 08:10:36 PM 39.1744 -84.0319 71° East 341 392 13,700 1,463 Climbing Indianapolis Center
Thu 08:11:38 PM 39.2200 -83.8919 67° East 353 406 15,300 1,355 Climbing Indianapolis Center
Thu 08:12:40 PM 39.2642 -83.7778 63° Northeast 357 411 16,500 1,122 Climbing Indianapolis Center
Thu 08:13:41 PM 39.3092 -83.6603 64° Northeast 363 418 17,600 927 Climbing Indianapolis Center
Thu 08:14:43 PM 39.3542 -83.5419 64° Northeast 368 423 18,400 823 Climbing Indianapolis Center
Thu 08:15:45 PM 39.3986 -83.4222 64° Northeast 371 427 19,300 780 Climbing Indianapolis Center
Thu 08:16:46 PM 39.4447 -83.3006 64° Northeast 378 435 20,000 634 Climbing Indianapolis Center
Thu 08:17:48 PM 39.5019 -83.1489 64° Northeast 392 451 20,600 532 Climbing Indianapolis Center
Thu 08:18:50 PM 39.5503 -83.0206 64° Northeast 398 458 21,100 484 Climbing Indianapolis Center
Thu 08:19:52 PM 39.5986 -82.8919 64° Northeast 401 461 21,600 488 Climbing Indianapolis Center
Thu 08:20:53 PM 39.6169 -82.7472 81° East 410 472 22,100 488 Climbing Indianapolis Center
Thu 08:21:55 PM 39.6286 -82.5989 84° East 414 476 22,600 484 Climbing Indianapolis Center
Thu 08:22:57 PM 39.6397 -82.4511 84° East 414 476 23,100 532 Climbing Indianapolis Center
Thu 08:23:59 PM 39.6544 -82.2719 84° East 417 480 23,700 537 Climbing Indianapolis Center
Thu 08:25:00 PM 39.6644 -82.1231 85° East 417 480 24,200 488 Climbing Indianapolis Center
Thu 08:26:02 PM 39.6767 -81.9861 83° East 417 480 24,700 484 Climbing Indianapolis Center
Thu 08:27:04 PM 39.6878 -81.8358 84° East 417 480 25,200 532 Climbing Indianapolis Center
Thu 08:28:06 PM 39.7017 -81.6550 84° East 418 481 25,800 488 Climbing Indianapolis Center
Thu 08:29:07 PM 39.7139 -81.5267 83° East 416 479 26,200 488 Climbing Indianapolis Center
Thu 08:30:09 PM 39.7292 -81.3564 83° East 416 479 26,800 581 Climbing Indianapolis Center
Thu 08:31:11 PM 39.7439 -81.2064 83° East 417 480 27,400 649 Climbing Indianapolis Center
Thu 08:33:14 PM 39.7772 -80.9142 81° East 406 467 28,800 681 Climbing Indianapolis Center
Thu 08:34:16 PM 39.8314 -80.7869 61° Northeast 403 464 29,500 629 Climbing Indianapolis Center
Thu 08:35:18 PM 39.8850 -80.6597 61° Northeast 401 461 30,100 526 Climbing Indianapolis Center
Thu 08:36:10 PM 39.9356 -80.5483 59° Northeast 402 463 30,500 474 Climbing Cleveland Center
Thu 08:37:12 PM 39.9897 -80.4264 60° Northeast 395 455 31,000 242 Climbing Cleveland Center
Thu 08:38:14 PM 40.0550 -80.2778 60° Northeast 396 456 31,000  Level Cleveland Center
Thu 08:39:17 PM 40.1117 -80.1489 60° Northeast 412 474 31,000  Level Cleveland Center
Thu 08:40:19 PM 40.1686 -80.0183 60° Northeast 421 484 31,000  Level Cleveland Center
Thu 08:41:21 PM 40.2258 -79.8861 60° Northeast 424 488 31,000  Level Cleveland Center
Thu 08:42:23 PM 40.2950 -79.7242 61° Northeast 431 496 31,000  Level Cleveland Center
Thu 08:43:25 PM 40.3539 -79.5892 60° Northeast 432 497 31,000  Level Cleveland Center
Thu 08:44:27 PM 40.4122 -79.4503 61° Northeast 435 501 31,000  Level Cleveland Center
Thu 08:46:31 PM 40.5331 -79.1664 61° Northeast 437 503 31,000  Level Cleveland Center
Thu 08:47:33 PM 40.5897 -79.0328 61° Northeast 439 505 31,000  Level Cleveland Center
Thu 08:48:35 PM 40.6625 -78.8603 61° Northeast 440 506 31,000  Level Cleveland Center
Thu 08:49:37 PM 40.7214 -78.7197 61° Northeast 440 506 31,000  Level Cleveland Center
Thu 08:50:39 PM 40.7789 -78.5811 61° Northeast 440 506 31,000  Level Cleveland Center
Thu 08:51:41 PM 40.8367 -78.4419 61° Northeast 441 507 31,000  Level Cleveland Center
Thu 08:52:44 PM 40.8964 -78.2992 61° Northeast 440 506 31,000  Level Cleveland Center
Thu 08:53:46 PM 40.9631 -78.1353 62° Northeast 441 507 31,000 -145 Level Cleveland Center
Thu 08:54:48 PM 41.0208 -77.9947 61° Northeast 440 506 30,700 -387 Descending Cleveland Center
Thu 08:55:50 PM 41.0836 -77.8525 60° Northeast 451 519 30,200 -339 Descending Cleveland Center
Thu 08:56:52 PM 41.1658 -77.6806 58° Northeast 464 534 30,000 -97 Descending Cleveland Center
Thu 08:57:54 PM 41.2225 -77.5342 63° Northeast 453 521 30,000 -146 Level Cleveland Center
Thu 08:58:55 PM 41.2789 -77.3908 62° Northeast 443 510 29,700 -390 Descending Cleveland Center
Thu 08:59:57 PM 41.3347 -77.2464 63° Northeast 442 509 29,200 -339 Descending Cleveland Center
Thu 09:00:59 PM 41.3917 -77.1036 62° Northeast 441 507 29,000 -97 Descending Cleveland Center
Thu 09:02:01 PM 41.4450 -76.9617 63° Northeast 434 499 29,000  Level Cleveland Center
Thu 09:03:03 PM 41.5111 -76.7917 63° Northeast 433 498 29,000 -145 Level Cleveland Center
Thu 09:04:05 PM 41.5744 -76.6564 58° Northeast 444 511 28,700 -662 Descending Cleveland Center
Thu 09:05:28 PM 41.7000 -76.5056 42° Northeast 447 514 27,400 -713 Descending Boston Center
Thu 09:06:28 PM 41.7839 -76.3744 49° Northeast 457 526 27,000 -202 Descending Boston Center
Thu 09:07:27 PM 41.8267 -76.2156 70° East 450 518 27,000  Level Boston Center
Thu 09:08:28 PM 41.8717 -76.0564 69° East 450 518 27,000  Level Boston Center
Thu 09:09:29 PM 41.9119 -75.8997 71° East 450 518 27,000  Level Boston Center
Thu 09:10:26 PM 41.9542 -75.7428 70° East 445 512 27,000  Level Boston Center
Thu 09:11:27 PM 41.9939 -75.5883 71° East 435 501 27,000  Level Boston Center
Thu 09:12:27 PM 42.0336 -75.4311 71° East 435 501 27,000  Level Boston Center
Thu 09:13:28 PM 42.0853 -75.2881 64° Northeast 435 501 27,000  Level Boston Center
Thu 09:14:29 PM 42.1656 -75.1600 50° Northeast 430 495 27,000 -353 Level Boston Center
Thu 09:15:27 PM 42.2108 -75.0133 67° East 423 487 26,300 -958 Descending Boston Center
Thu 09:16:28 PM 42.2439 -74.8267 76° East 440 506 25,100 -1,082 Descending Boston Center
Thu 09:17:29 PM 42.2767 -74.6542 76° East 458 527 24,100 -1,109 Descending Boston Center
Thu 09:18:27 PM 42.3069 -74.4867 76° East 463 533 22,900 -1,220 Descending Boston Center
Thu 09:19:27 PM 42.3200 -74.3328 83° East 463 533 21,700 -1,412 Descending Boston Center
Thu 09:20:26 PM 42.3164 -74.1753 92° East 440 506 20,100 -1,650 Descending Boston Center
Thu 09:21:27 PM 42.3103 -74.0094 93° East 411 473 18,400 -1,377 Descending Boston Center
Thu 09:22:28 PM 42.3058 -73.8803 93° East 391 450 17,300 -1,328 Descending Boston Center
Thu 09:23:29 PM 42.2994 -73.7200 93° East 386 444 15,700 -1,462 Descending Boston Center
Thu 09:24:27 PM 42.2967 -73.5936 92° East 381 438 14,400 -1,525 Descending Boston Center
Thu 09:25:27 PM 42.2917 -73.4478 93° East 367 422 12,700 -1,600 Descending Boston Center
Thu 09:25:42 PM 42.2878 -73.4139 99° East 340 391 12,400 -885 Descending Boston Center
Thu 09:26:28 PM 42.2886 -73.3242 89° East 362 417 11,800 -885 Descending Boston Center
Thu 09:26:43 PM 42.2786 -73.2819 108° East 352 405 11,500 -900 Descending Boston Center
Thu 09:27:28 PM 42.2269 -73.2083 133° Southeast 340 391 10,900 -689 Descending Boston Center
Thu 09:27:44 PM 42.2061 -73.1856 141° Southeast 342 394 10,800 -724 Descending Boston Center
Thu 09:28:26 PM 42.1711 -73.1403 136° Southeast 318 366 10,200 -1,164 Descending Boston Center
Thu 09:28:51 PM 42.1419 -73.1092 142° Southeast 267 307 9,500 -1,765 Descending Boston Center
Thu 09:29:51 PM 42.0861 -73.0417 138° Southeast 257 296 7,700 -1,983 Descending Boston Center
Thu 09:30:52 PM 42.0322 -72.9767 138° Southeast 264 304 5,500 -2,063 Descending Boston Center
Thu 09:31:59 PM 41.9742 -72.9092 139° Southeast 236 272 3,300 -1,172 Descending Boston Center
Thu 09:33:00 PM 41.9222 -72.8753 154° Southeast 203 234 3,000 -295 Descending Boston Center
Thu 09:34:01 PM 41.8767 -72.8444 153° Southeast 187 215 2,700 -446 Descending Boston Center
Thu 09:35:01 PM 41.8683 -72.7886 101° East 155 178 2,100 -737 Descending Boston Center
Thu 09:35:55 PM 41.8914 -72.7525 49° Northeast 126 145 1,300 -730 Descending Boston Center
Thu 09:36:56 PM 41.9167 -72.7219 42° Northeast 123 142 700 -590 Descending Boston Center

Login

Don't have an account? Register now (free) for customized features, flight alerts, and more!